createdAt,value
2018-11-12T06:36:04.904Z,48.30
2018-11-12T06:38:34.175Z,55.23
2018-11-12T06:41:03.364Z,38.70
2018-11-12T06:43:32.578Z,49.33
2018-11-12T06:46:01.881Z,46.37
2018-11-12T06:48:30.962Z,37.37
2018-11-12T06:51:00.210Z,33.43
2018-11-12T06:53:29.590Z,36.60
2018-11-12T06:55:59.173Z,43.77
2018-11-12T06:58:28.281Z,42.60
2018-11-12T07:00:57.586Z,35.73
2018-11-12T07:03:26.644Z,37.40
2018-11-12T07:05:55.638Z,37.30
2018-11-12T07:08:24.823Z,36.63
2018-11-12T07:10:54.047Z,33.10
2018-11-12T07:13:23.204Z,40.73
2018-11-12T07:15:52.227Z,32.13
2018-11-12T07:18:21.369Z,39.33
2018-11-12T07:20:50.494Z,39.23
2018-11-12T07:23:19.630Z,33.70
2018-11-12T07:25:48.729Z,34.17
2018-11-12T07:28:17.950Z,31.83
2018-11-12T07:30:47.200Z,39.63
2018-11-12T07:33:16.667Z,33.85
2018-11-12T07:35:45.736Z,32.27
2018-11-12T07:38:14.866Z,35.77
2018-11-12T07:40:43.988Z,32.10
2018-11-12T07:43:13.152Z,30.40
2018-11-12T07:45:42.214Z,33.37
2018-11-12T07:48:12.199Z,29.97
2018-11-12T07:50:41.366Z,28.63
2018-11-12T07:53:10.509Z,31.90
2018-11-12T07:55:39.628Z,26.97
2018-11-12T07:58:08.742Z,36.30
2018-11-12T08:00:37.823Z,35.73
2018-11-12T08:03:08.420Z,30.70
2018-11-12T08:05:37.930Z,34.88
2018-11-12T08:08:07.529Z,31.73
2018-11-12T08:10:36.699Z,28.07
2018-11-12T08:13:05.985Z,36.13
2018-11-12T08:15:35.059Z,30.90
2018-11-12T08:18:04.150Z,28.47
2018-11-12T08:20:33.282Z,35.57
2018-11-12T08:23:02.320Z,31.57
2018-11-12T08:25:31.479Z,31.33
2018-11-12T08:28:00.817Z,33.77
2018-11-12T08:30:30.493Z,26.73
2018-11-12T08:33:00.609Z,28.47
2018-11-12T08:35:29.613Z,29.07
2018-11-12T08:37:59.096Z,27.33
2018-11-12T08:40:29.200Z,29.87
2018-11-12T08:42:58.330Z,28.33
2018-11-12T08:45:27.537Z,27.87
2018-11-12T08:47:57.377Z,27.50
2018-11-12T08:50:27.435Z,29.72
2018-11-12T08:52:57.209Z,27.67
2018-11-12T08:55:27.788Z,29.23
2018-11-12T08:57:59.189Z,30.70
2018-11-12T09:00:28.917Z,32.33
2018-11-12T09:02:57.978Z,29.47
2018-11-12T09:05:28.319Z,27.80
2018-11-12T09:07:58.677Z,33.40
2018-11-12T09:10:29.262Z,28.03
2018-11-12T09:12:58.567Z,26.27
2018-11-12T09:15:28.208Z,29.07
2018-11-12T09:17:57.323Z,28.87
2018-11-12T09:20:27.597Z,29.37
2018-11-12T09:22:57.012Z,34.97
2018-11-12T09:25:27.111Z,23.07
2018-11-12T09:27:56.589Z,30.00
2018-11-12T09:30:26.866Z,29.80
2018-11-12T09:32:56.022Z,25.57
2018-11-12T09:35:26.361Z,38.60
2018-11-12T09:37:56.405Z,25.87
2018-11-12T09:40:31.798Z,27.65
2018-11-12T09:43:00.875Z,24.77
2018-11-12T09:45:30.135Z,24.73
2018-11-12T09:47:59.437Z,24.13
2018-11-12T09:50:29.175Z,24.50
2018-11-12T09:52:59.479Z,26.07
2018-11-12T09:55:29.740Z,25.10
2018-11-12T09:58:02.963Z,28.13
2018-11-12T10:00:32.249Z,22.63
2018-11-12T10:03:02.035Z,28.12
2018-11-12T10:05:32.393Z,25.62
2018-11-12T10:08:09.151Z,24.70
2018-11-12T10:10:43.652Z,27.67
2018-11-12T10:13:15.262Z,25.33
2018-11-12T10:15:44.647Z,26.40
2018-11-12T10:20:40.184Z,22.17
2018-11-12T10:23:09.499Z,25.52
2018-11-12T10:25:38.787Z,24.33
2018-11-12T10:28:07.962Z,28.35
2018-11-12T10:30:37.503Z,24.75
2018-11-12T10:33:07.972Z,26.95
2018-11-12T10:35:37.207Z,23.03
2018-11-12T10:38:06.858Z,23.47
2018-11-12T10:40:36.057Z,23.47
2018-11-12T10:43:05.313Z,24.27
2018-11-12T10:45:34.451Z,26.27
2018-11-12T10:48:03.710Z,23.87
2018-11-12T10:50:32.905Z,22.48
2018-11-12T10:53:02.803Z,22.05
2018-11-12T10:55:32.069Z,24.35
2018-11-12T10:58:01.266Z,23.87
2018-11-12T11:00:36.544Z,25.80
2018-11-12T11:03:12.102Z,19.87
2018-11-12T11:05:42.320Z,23.75
2018-11-12T11:08:11.552Z,22.87
2018-11-12T11:10:40.609Z,26.07
2018-11-12T11:13:09.784Z,23.07
2018-11-12T11:15:39.334Z,24.37
2018-11-12T11:18:08.473Z,24.92
2018-11-12T11:20:37.633Z,25.23
2018-11-12T11:23:07.465Z,33.02
2018-11-12T11:25:36.816Z,26.73
2018-11-12T11:28:06.022Z,25.40
2018-11-12T11:30:35.163Z,26.77
2018-11-12T11:33:04.189Z,28.47
2018-11-12T11:35:33.280Z,27.30
2018-11-12T11:38:02.458Z,26.30
2018-11-12T11:40:31.487Z,26.67
2018-11-12T11:43:00.618Z,28.63
2018-11-12T11:45:29.806Z,28.32
2018-11-12T11:47:59.351Z,32.28
2018-11-12T11:50:28.582Z,29.83
2018-11-12T11:52:57.539Z,26.97
2018-11-12T11:55:26.636Z,27.77
2018-11-12T11:57:55.777Z,32.47
2018-11-12T12:00:26.115Z,29.00
2018-11-12T12:02:56.358Z,25.92
2018-11-12T12:05:26.120Z,29.60
2018-11-12T12:07:55.968Z,26.77
2018-11-12T12:10:25.112Z,31.05
2018-11-12T12:12:54.225Z,28.67
2018-11-12T12:15:24.160Z,28.92
2018-11-12T12:17:53.232Z,25.97
2018-11-12T12:20:24.585Z,28.57
2018-11-12T12:22:54.113Z,25.72
2018-11-12T12:25:23.854Z,26.17
2018-11-12T12:27:52.982Z,28.27
2018-11-12T12:30:29.286Z,25.43
2018-11-12T12:32:58.981Z,25.32
2018-11-12T12:35:28.195Z,24.10
2018-11-12T12:37:58.038Z,24.67
2018-11-12T12:40:27.473Z,24.63
2018-11-12T12:42:56.571Z,23.43
2018-11-12T12:45:27.015Z,23.00
2018-11-12T12:47:57.033Z,24.67
2018-11-12T12:50:26.105Z,25.63
2018-11-12T12:52:55.103Z,26.73
2018-11-12T12:55:24.733Z,26.95
2018-11-12T12:57:53.827Z,27.42
2018-11-12T13:00:26.577Z,25.97
2018-11-12T13:02:55.831Z,24.52
2018-11-12T13:05:24.985Z,21.55
2018-11-12T13:07:54.241Z,29.87
2018-11-12T13:10:24.147Z,26.42
2018-11-12T13:12:53.205Z,24.20
2018-11-12T13:15:23.833Z,22.70
2018-11-12T13:17:53.607Z,23.75
2018-11-12T13:20:24.038Z,26.63
2018-11-12T13:22:53.565Z,20.20
2018-11-12T13:25:22.971Z,21.87
2018-11-12T13:27:52.044Z,23.25
2018-11-12T13:30:22.355Z,21.65
2018-11-12T13:32:51.601Z,26.37
2018-11-12T13:35:22.290Z,25.97
2018-11-12T13:37:51.459Z,20.62
2018-11-12T13:40:21.965Z,24.32
2018-11-12T13:42:54.447Z,22.10
2018-11-12T13:45:25.030Z,25.90
2018-11-12T13:47:54.458Z,25.37
2018-11-12T13:50:24.827Z,22.70
2018-11-12T13:52:54.459Z,23.18
2018-11-12T13:55:24.278Z,23.47
2018-11-12T13:57:53.529Z,23.52
2018-11-12T14:00:24.131Z,23.63
2018-11-12T14:02:53.913Z,24.33
2018-11-12T14:05:24.029Z,23.57
2018-11-12T14:07:53.173Z,27.35
2018-11-12T14:10:24.057Z,23.60
2018-11-12T14:12:54.011Z,22.87
2018-11-12T14:15:23.797Z,20.60
2018-11-12T14:17:53.480Z,22.30
2018-11-12T14:20:23.227Z,24.75
2018-11-12T14:22:52.221Z,22.22
2018-11-12T14:25:22.125Z,23.60
2018-11-12T14:27:52.619Z,21.83
2018-11-12T14:30:23.454Z,23.90
2018-11-12T14:32:52.555Z,20.12
2018-11-12T14:35:21.748Z,20.52
2018-11-12T14:37:50.889Z,23.17
2018-11-12T14:40:20.337Z,22.30
2018-11-12T14:42:49.435Z,35.00
2018-11-12T14:45:19.928Z,32.65
2018-11-12T14:47:49.569Z,38.57
2018-11-12T14:50:18.895Z,47.13
2018-11-12T14:52:48.361Z,68.33
2018-11-12T14:55:18.140Z,74.53
2018-11-12T14:57:47.293Z,74.43
2018-11-12T15:00:49.865Z,85.20
2018-11-12T15:03:19.103Z,75.47
2018-11-12T15:05:48.262Z,82.97
2018-11-12T15:08:17.251Z,78.60
2018-11-12T15:10:46.382Z,94.97
2018-11-12T15:13:15.630Z,78.57
2018-11-12T15:15:44.753Z,88.95
2018-11-12T15:18:13.747Z,85.53
2018-11-12T15:20:42.935Z,82.60
2018-11-12T15:23:11.059Z,85.92
2018-11-12T15:25:40.626Z,83.47
2018-11-12T15:28:09.901Z,80.60
2018-11-12T15:30:39.335Z,85.70
2018-11-12T15:33:08.434Z,89.27
2018-11-12T15:35:37.553Z,91.83
2018-11-12T15:38:06.824Z,89.33
2018-11-12T15:40:36.069Z,97.10
2018-11-12T15:43:05.323Z,100.97
2018-11-12T15:45:33.321Z,107.07
2018-11-12T15:48:02.427Z,102.37
2018-11-12T15:50:34.680Z,112.25
2018-11-12T15:53:03.674Z,108.50
2018-11-12T15:55:32.778Z,111.25
2018-11-12T15:58:02.104Z,120.20
2018-11-12T16:00:31.293Z,108.07
2018-11-12T16:03:00.683Z,111.80
2018-11-12T16:05:29.745Z,132.37
2018-11-12T16:07:58.788Z,129.87
2018-11-12T16:10:28.253Z,126.83
2018-11-12T16:12:57.563Z,128.37
2018-11-12T16:15:26.571Z,119.77
2018-11-12T16:17:55.650Z,118.87
2018-11-12T16:20:28.041Z,115.40
2018-11-12T16:22:58.118Z,116.30
2018-11-12T16:25:27.746Z,110.53
2018-11-12T16:27:57.166Z,103.62
2018-11-12T16:30:26.258Z,112.60
2018-11-12T16:32:55.384Z,112.60
2018-11-12T16:35:25.256Z,111.90
2018-11-12T16:37:55.213Z,124.13
2018-11-12T16:40:24.313Z,123.33
2018-11-12T16:42:53.508Z,118.07
2018-11-12T16:45:22.699Z,126.17
2018-11-12T16:47:51.889Z,132.50
2018-11-12T16:50:20.970Z,142.83
2018-11-12T16:52:50.136Z,141.87
2018-11-12T16:55:20.582Z,134.45
2018-11-12T16:57:49.891Z,130.33
2018-11-12T17:00:20.204Z,133.27
2018-11-12T17:02:49.646Z,129.63
2018-11-12T17:05:21.662Z,122.78
2018-11-12T17:07:51.359Z,123.77
2018-11-12T17:10:21.745Z,122.03
2018-11-12T17:12:51.048Z,128.45
2018-11-12T17:15:20.126Z,126.90
2018-11-12T17:17:49.544Z,121.77
2018-11-12T17:20:20.576Z,120.92
2018-11-12T17:22:49.797Z,122.02
2018-11-12T17:25:19.450Z,120.30
2018-11-12T17:27:48.692Z,122.47
2018-11-12T17:30:19.371Z,123.57
2018-11-12T17:32:48.507Z,123.90
2018-11-12T17:35:19.581Z,126.75
2018-11-12T17:37:48.971Z,120.30
2018-11-12T17:40:20.186Z,119.73
2018-11-12T17:42:50.037Z,125.43
2018-11-12T17:45:21.194Z,118.20
2018-11-12T17:47:51.374Z,111.28
2018-11-12T17:50:20.576Z,117.08
2018-11-12T17:52:49.795Z,122.78
2018-11-12T17:55:18.970Z,123.22
2018-11-12T17:57:48.058Z,118.13
2018-11-12T18:00:22.358Z,112.65
2018-11-12T18:02:51.501Z,113.30
2018-11-12T18:05:20.962Z,107.00
2018-11-12T18:07:50.198Z,103.97
2018-11-12T18:10:19.634Z,106.80
2018-11-12T18:12:49.644Z,109.53
2018-11-12T18:15:20.630Z,108.80
2018-11-12T18:17:49.850Z,106.90
2018-11-12T18:20:21.477Z,104.03
2018-11-12T18:22:52.299Z,106.30
2018-11-12T18:25:21.906Z,99.83
2018-11-12T18:27:51.157Z,104.83
2018-11-12T18:30:23.392Z,98.93
2018-11-12T18:32:53.438Z,99.40
2018-11-12T18:35:22.758Z,100.62
2018-11-12T18:37:51.930Z,97.75
2018-11-12T18:40:22.789Z,97.30
2018-11-12T18:42:52.042Z,98.45
2018-11-12T18:45:22.389Z,88.60
2018-11-12T18:47:52.623Z,87.77
2018-11-12T18:50:25.145Z,96.87
2018-11-12T18:52:54.298Z,88.07
2018-11-12T18:55:23.421Z,87.62
2018-11-12T18:57:53.062Z,83.20
2018-11-12T19:00:23.291Z,85.77
2018-11-12T19:02:52.806Z,82.40
2018-11-12T19:05:23.376Z,86.60
2018-11-12T19:07:53.441Z,82.20
2018-11-12T19:10:24.758Z,87.75
2018-11-12T19:12:54.319Z,84.42
2018-11-12T19:15:25.771Z,87.30
2018-11-12T19:17:56.216Z,79.20
2018-11-12T19:20:25.334Z,82.95
2018-11-12T19:22:55.045Z,74.47
2018-11-12T19:25:24.383Z,82.07
2018-11-12T19:27:53.518Z,82.40
2018-11-12T19:30:23.958Z,74.93
2018-11-12T19:32:53.055Z,73.90
2018-11-12T19:35:23.709Z,75.20
2018-11-12T19:37:53.236Z,71.40
2018-11-12T19:40:23.550Z,66.62
2018-11-12T19:42:53.613Z,70.87
2018-11-12T19:45:23.176Z,67.20
2018-11-12T19:47:52.733Z,68.50
2018-11-12T19:50:23.301Z,74.62
2018-11-12T19:52:54.079Z,68.37
2018-11-12T19:55:23.542Z,67.58
2018-11-12T19:57:52.786Z,64.35
2018-11-12T20:00:24.346Z,70.63
2018-11-12T20:02:54.745Z,68.80
2018-11-12T20:05:23.915Z,65.37
2018-11-12T20:07:53.123Z,66.47
2018-11-12T20:10:23.298Z,65.17
2018-11-12T20:12:52.507Z,69.00
2018-11-12T20:15:23.079Z,65.57
2018-11-12T20:17:53.010Z,59.93
2018-11-12T20:20:24.350Z,57.50
2018-11-12T20:22:53.865Z,61.28
2018-11-12T20:25:23.151Z,55.25
2018-11-12T20:27:53.500Z,58.30
2018-11-12T20:30:26.344Z,60.73
2018-11-12T20:32:55.779Z,53.87
2018-11-12T20:35:24.965Z,55.83
2018-11-12T20:37:54.051Z,53.63
2018-11-12T20:40:23.175Z,56.27
2018-11-12T20:42:52.404Z,59.53
2018-11-12T20:45:22.187Z,55.90
2018-11-12T20:47:52.780Z,54.47
2018-11-12T20:50:21.979Z,57.08
2018-11-12T20:52:51.151Z,52.60
2018-11-12T20:55:20.380Z,54.13
2018-11-12T20:57:49.704Z,48.87
2018-11-12T21:00:26.929Z,47.80
2018-11-12T21:02:56.643Z,51.50
2018-11-12T21:05:27.463Z,49.67
2018-11-12T21:07:56.510Z,60.17
2018-11-12T21:10:25.869Z,48.83
2018-11-12T21:12:55.050Z,49.27
2018-11-12T21:15:24.857Z,46.50
2018-11-12T21:17:54.078Z,47.67
2018-11-12T21:20:27.030Z,46.53
2018-11-12T21:22:56.402Z,45.45
2018-11-12T21:25:26.709Z,49.43
2018-11-12T21:27:55.848Z,53.40
2018-11-12T21:30:26.122Z,48.63
2018-11-12T21:32:55.294Z,46.05
2018-11-12T21:35:24.612Z,48.42
2018-11-12T21:37:54.889Z,48.00
2018-11-12T21:40:25.240Z,44.27
2018-11-12T21:42:54.833Z,46.02
2018-11-12T21:45:28.406Z,50.70
2018-11-12T21:47:57.478Z,48.07
2018-11-12T21:50:26.578Z,46.00
2018-11-12T21:52:55.695Z,45.23
2018-11-12T21:55:24.845Z,45.87
2018-11-12T21:57:54.284Z,48.87
2018-11-12T22:00:28.337Z,43.28
2018-11-12T22:02:59.579Z,47.53
2018-11-12T22:05:29.339Z,45.85
2018-11-12T22:07:58.500Z,43.52
2018-11-12T22:10:27.656Z,37.58
2018-11-12T22:12:57.116Z,47.40
2018-11-12T22:15:26.291Z,46.87
2018-11-12T22:17:55.414Z,43.67
2018-11-12T22:20:25.942Z,40.92
2018-11-12T22:22:55.022Z,42.63
2018-11-12T22:25:24.633Z,39.35
2018-11-12T22:27:54.292Z,40.70
2018-11-12T22:30:26.302Z,40.00
2018-11-12T22:32:56.181Z,39.27
2018-11-12T22:35:25.294Z,43.75
2018-11-12T22:37:54.417Z,40.40
2018-11-12T22:40:23.527Z,42.20
2018-11-12T22:42:53.270Z,39.18
2018-11-12T22:45:23.716Z,41.20
2018-11-12T22:47:53.113Z,41.40
2018-11-12T22:50:22.323Z,45.73
2018-11-12T22:52:51.525Z,38.85
2018-11-12T22:55:21.002Z,37.60
2018-11-12T22:57:50.445Z,38.70
2018-11-12T23:00:25.598Z,37.25
2018-11-12T23:02:54.916Z,41.33
2018-11-12T23:05:24.410Z,40.00
2018-11-12T23:07:54.269Z,39.30
2018-11-12T23:10:23.574Z,37.75
2018-11-12T23:12:52.750Z,38.30
2018-11-12T23:15:22.067Z,37.78
2018-11-12T23:17:51.335Z,38.07
2018-11-12T23:20:22.356Z,36.28
2018-11-12T23:22:51.914Z,38.65
2018-11-12T23:25:21.143Z,41.73
2018-11-12T23:27:50.926Z,36.70
2018-11-12T23:30:21.289Z,39.07
2018-11-12T23:32:51.270Z,38.67
2018-11-12T23:35:22.676Z,39.07
2018-11-12T23:37:51.963Z,41.18
2018-11-12T23:40:21.297Z,37.40
2018-11-12T23:42:50.825Z,36.93
2018-11-12T23:45:20.195Z,39.83
2018-11-12T23:47:49.306Z,35.10
2018-11-12T23:50:19.728Z,36.47
2018-11-12T23:52:49.693Z,36.67
2018-11-12T23:55:19.419Z,37.00
2018-11-12T23:57:49.274Z,33.63
